createdAt,value
2017-05-05T00:01:04.852Z,21.52
2017-05-05T00:03:32.534Z,21.33
2017-05-05T00:06:00.949Z,23.68
2017-05-05T00:08:29.376Z,27.28
2017-05-05T00:10:57.785Z,21.63
2017-05-05T00:13:26.220Z,24.50
2017-05-05T00:15:54.628Z,24.42
2017-05-05T00:18:22.297Z,21.73
2017-05-05T00:20:51.460Z,24.28
2017-05-05T00:23:19.124Z,22.92
2017-05-05T00:25:47.072Z,24.68
2017-05-05T00:28:14.733Z,19.97
2017-05-05T00:30:43.132Z,20.13
2017-05-05T00:33:11.570Z,21.05
2017-05-05T00:35:39.992Z,20.75
2017-05-05T00:38:07.937Z,20.48
2017-05-05T00:40:36.341Z,23.32
2017-05-05T00:43:03.982Z,21.68
2017-05-05T00:45:32.417Z,18.72
2017-05-05T00:48:00.834Z,21.23
2017-05-05T00:50:29.648Z,21.55
2017-05-05T00:52:57.299Z,18.40
2017-05-05T00:55:24.936Z,27.80
2017-05-05T00:57:52.597Z,25.78
2017-05-05T01:00:20.232Z,25.00
2017-05-05T01:02:48.668Z,24.05
2017-05-05T01:05:16.323Z,24.98
2017-05-05T01:07:44.304Z,27.35
2017-05-05T01:10:12.724Z,23.13
2017-05-05T01:12:41.138Z,33.10
2017-05-05T01:15:08.802Z,26.90
2017-05-05T01:17:36.440Z,27.28
2017-05-05T01:20:04.115Z,28.63
2017-05-05T01:22:32.521Z,28.52
2017-05-05T01:25:00.185Z,28.83
2017-05-05T01:27:27.815Z,31.73
2017-05-05T01:29:55.487Z,29.75
2017-05-05T01:32:23.884Z,31.38
2017-05-05T01:34:51.913Z,31.50
2017-05-05T01:37:20.329Z,31.28
2017-05-05T01:39:47.963Z,31.83
2017-05-05T01:42:16.398Z,36.50
2017-05-05T01:44:44.039Z,36.65
2017-05-05T01:47:11.809Z,39.58
2017-05-05T01:49:40.215Z,38.68
2017-05-05T01:52:07.857Z,46.95
2017-05-05T01:54:35.841Z,36.90
2017-05-05T01:57:03.491Z,40.57
2017-05-05T01:59:31.138Z,38.23
2017-05-05T02:01:58.811Z,40.95
2017-05-05T02:04:26.453Z,40.53
2017-05-05T02:06:54.903Z,43.03
2017-05-05T02:09:22.623Z,49.17
2017-05-05T02:11:50.288Z,40.40
2017-05-05T02:14:17.950Z,43.17
2017-05-05T02:16:46.017Z,57.13
2017-05-05T02:19:13.678Z,45.67
2017-05-05T02:21:41.401Z,51.02
2017-05-05T02:24:09.845Z,52.18
2017-05-05T02:26:37.510Z,65.98
2017-05-05T02:29:05.185Z,42.78
2017-05-05T02:31:33.618Z,77.18
2017-05-05T02:34:02.083Z,54.83
2017-05-05T02:36:29.732Z,47.70
2017-05-05T02:38:57.393Z,63.40
2017-05-05T02:41:25.796Z,57.05
2017-05-05T02:43:53.461Z,37.75
2017-05-05T02:46:21.104Z,38.40
2017-05-05T02:48:48.766Z,59.05
2017-05-05T02:51:16.413Z,40.97
2017-05-05T02:53:44.084Z,32.05
2017-05-05T02:56:11.726Z,38.12
2017-05-05T02:58:39.382Z,28.97
2017-05-05T03:01:08.533Z,42.95
2017-05-05T03:03:36.201Z,51.20
2017-05-05T03:06:04.848Z,45.20
2017-05-05T03:08:32.805Z,44.43
2017-05-05T03:11:00.496Z,37.05
2017-05-05T03:13:28.141Z,41.90
2017-05-05T03:15:55.804Z,26.67
2017-05-05T03:18:24.205Z,36.67
2017-05-05T03:20:51.865Z,36.78
2017-05-05T03:23:20.272Z,38.05
2017-05-05T03:25:48.711Z,21.35
2017-05-05T03:28:16.357Z,22.95
2017-05-05T03:30:44.022Z,22.87
2017-05-05T03:33:13.170Z,35.37
2017-05-05T03:35:41.593Z,32.63
2017-05-05T03:38:09.270Z,42.08
2017-05-05T03:40:36.941Z,38.07
2017-05-05T03:43:05.240Z,38.60
2017-05-05T03:45:34.059Z,36.27
2017-05-05T03:48:03.488Z,50.78
2017-05-05T03:50:31.135Z,39.17
2017-05-05T03:52:59.585Z,35.62
2017-05-05T03:55:27.241Z,38.28
2017-05-05T03:57:56.417Z,23.02
2017-05-05T04:00:25.571Z,42.63
2017-05-05T04:02:53.239Z,39.38
2017-05-05T04:05:20.876Z,32.72
2017-05-05T04:07:48.916Z,22.60
2017-05-05T04:10:16.562Z,27.73
2017-05-05T04:12:44.206Z,34.88
2017-05-05T04:15:12.650Z,33.75
2017-05-05T04:17:40.293Z,32.57
2017-05-05T04:20:07.960Z,39.95
2017-05-05T04:22:35.592Z,27.98
2017-05-05T04:25:04.031Z,37.22
2017-05-05T04:27:32.441Z,21.73
2017-05-05T04:30:00.102Z,35.82
2017-05-05T04:32:27.736Z,32.30
2017-05-05T04:34:55.438Z,36.15
2017-05-05T04:37:23.860Z,41.47
2017-05-05T04:39:51.529Z,32.92
2017-05-05T04:42:19.162Z,35.27
2017-05-05T04:44:47.621Z,39.67
2017-05-05T04:47:16.029Z,31.53
2017-05-05T04:49:44.494Z,33.22
2017-05-05T04:52:12.901Z,32.55
2017-05-05T04:54:40.570Z,24.20
2017-05-05T04:57:08.977Z,33.20
2017-05-05T04:59:37.396Z,27.50
2017-05-05T05:02:05.090Z,33.52
2017-05-05T05:04:33.525Z,23.32
2017-05-05T05:07:02.665Z,29.15
2017-05-05T05:09:30.448Z,25.75
2017-05-05T05:11:59.742Z,32.47
2017-05-05T05:14:27.394Z,31.10
2017-05-05T05:16:55.069Z,34.52
2017-05-05T05:19:23.594Z,25.72
2017-05-05T05:21:51.256Z,24.58
2017-05-05T05:24:19.691Z,21.00
2017-05-05T05:26:47.368Z,25.72
2017-05-05T05:29:15.006Z,29.28
2017-05-05T05:31:42.673Z,24.30
2017-05-05T05:34:11.084Z,32.35
2017-05-05T05:36:38.761Z,26.38
2017-05-05T05:39:06.409Z,25.05
2017-05-05T05:41:34.084Z,24.95
2017-05-05T05:44:01.729Z,20.37
2017-05-05T05:46:30.160Z,21.63
2017-05-05T05:48:59.311Z,20.92
2017-05-05T05:51:27.043Z,30.68
2017-05-05T05:53:54.684Z,30.50
2017-05-05T05:56:22.357Z,37.83
2017-05-05T05:58:50.010Z,22.28
2017-05-05T06:01:18.780Z,33.38
2017-05-05T06:03:46.432Z,31.68
2017-05-05T06:06:14.101Z,34.10
2017-05-05T06:08:41.778Z,28.90
2017-05-05T06:11:10.189Z,25.07
2017-05-05T06:13:37.862Z,41.85
2017-05-05T06:16:06.298Z,32.20
2017-05-05T06:18:34.253Z,42.93
2017-05-05T06:21:01.965Z,34.85
2017-05-05T06:23:29.633Z,28.73
2017-05-05T06:25:57.301Z,30.53
2017-05-05T06:28:24.985Z,28.13
2017-05-05T06:30:53.424Z,26.60
2017-05-05T06:33:21.061Z,29.17
2017-05-05T06:35:48.756Z,26.13
2017-05-05T06:38:17.171Z,25.50
2017-05-05T06:40:45.617Z,22.10
2017-05-05T06:43:13.269Z,33.25
2017-05-05T06:45:41.720Z,27.33
2017-05-05T06:48:09.651Z,23.42
2017-05-05T06:50:38.093Z,23.75
2017-05-05T06:53:05.733Z,24.90
2017-05-05T06:55:33.498Z,23.15
2017-05-05T06:58:01.136Z,23.52
2017-05-05T07:00:28.801Z,27.00
2017-05-05T07:02:57.216Z,27.35
2017-05-05T07:05:24.892Z,19.83
2017-05-05T07:07:53.328Z,23.67
2017-05-05T07:10:21.001Z,23.68
2017-05-05T07:12:48.663Z,25.77
2017-05-05T07:15:17.402Z,24.50
2017-05-05T07:17:45.816Z,21.70
2017-05-05T07:20:14.233Z,21.02
2017-05-05T07:22:41.903Z,24.77
2017-05-05T07:25:09.584Z,20.15
2017-05-05T07:27:37.289Z,19.90
2017-05-05T07:30:04.942Z,22.22
2017-05-05T07:32:32.888Z,20.78
2017-05-05T07:35:02.108Z,15.95
2017-05-05T07:37:30.525Z,20.27
2017-05-05T07:39:58.201Z,21.00
2017-05-05T07:42:26.629Z,18.42
2017-05-05T07:44:54.312Z,20.92
2017-05-05T07:47:22.724Z,19.92
2017-05-05T07:49:50.468Z,18.10
2017-05-05T07:52:18.116Z,15.57
2017-05-05T07:54:46.557Z,17.95
2017-05-05T07:57:14.199Z,21.77
2017-05-05T07:59:42.906Z,14.27
2017-05-05T08:02:10.550Z,20.80
2017-05-05T08:04:38.205Z,17.80
2017-05-05T08:07:05.869Z,20.85
2017-05-05T08:09:33.520Z,19.82
2017-05-05T08:12:01.199Z,18.38
2017-05-05T08:14:29.616Z,20.72
2017-05-05T08:16:57.288Z,19.55
2017-05-05T08:19:24.940Z,20.95
2017-05-05T08:21:52.620Z,15.37
2017-05-05T08:24:21.052Z,15.50
2017-05-05T08:26:48.734Z,14.95
2017-05-05T08:29:16.381Z,14.02
2017-05-05T08:31:44.054Z,17.80
2017-05-05T08:34:11.736Z,16.30
2017-05-05T08:36:39.388Z,16.40
2017-05-05T08:39:07.069Z,17.58
2017-05-05T08:41:34.788Z,13.40
2017-05-05T08:44:02.467Z,17.32
2017-05-05T08:46:30.873Z,15.30
2017-05-05T08:48:58.536Z,10.60
2017-05-05T08:51:26.951Z,13.83
2017-05-05T08:53:54.997Z,14.20
2017-05-05T08:56:22.637Z,13.25
2017-05-05T08:58:51.046Z,12.65
2017-05-05T09:01:18.733Z,12.77
2017-05-05T09:03:47.166Z,13.85
2017-05-05T09:06:15.613Z,11.82
2017-05-05T09:08:43.253Z,13.28
2017-05-05T09:11:10.929Z,13.82
2017-05-05T09:13:38.579Z,13.70
2017-05-05T09:16:06.257Z,13.87
2017-05-05T09:18:34.668Z,12.90
2017-05-05T09:21:02.331Z,12.43
2017-05-05T09:23:29.993Z,12.53
2017-05-05T09:25:58.124Z,12.08
2017-05-05T09:28:25.768Z,13.67
2017-05-05T09:30:53.461Z,11.18
2017-05-05T09:33:21.872Z,16.25
2017-05-05T09:35:49.540Z,13.67
2017-05-05T09:38:17.189Z,16.93
2017-05-05T09:40:44.861Z,14.33
2017-05-05T09:43:13.289Z,14.05
2017-05-05T09:45:41.345Z,16.38
2017-05-05T09:48:08.998Z,17.33
2017-05-05T09:50:36.648Z,16.90
2017-05-05T09:53:05.080Z,17.20
2017-05-05T09:55:32.733Z,16.90
2017-05-05T09:58:00.405Z,16.93
2017-05-05T10:00:28.812Z,16.13
2017-05-05T10:02:57.250Z,14.88
2017-05-05T10:05:26.431Z,15.90
2017-05-05T10:07:54.168Z,15.83
2017-05-05T10:10:21.856Z,14.02
2017-05-05T10:12:50.288Z,15.20
2017-05-05T10:15:17.928Z,14.67
2017-05-05T10:17:45.606Z,16.75
2017-05-05T10:20:14.026Z,19.13
2017-05-05T10:22:43.195Z,16.50
2017-05-05T10:25:10.937Z,16.02
2017-05-05T10:27:38.609Z,13.20
2017-05-05T10:30:06.260Z,18.72
2017-05-05T10:32:34.310Z,17.50
2017-05-05T10:35:01.958Z,19.03
2017-05-05T10:37:29.604Z,18.90
2017-05-05T10:39:58.042Z,19.93
2017-05-05T10:42:25.700Z,20.12
2017-05-05T10:44:53.380Z,16.45
2017-05-05T10:47:21.032Z,18.92
2017-05-05T10:49:48.706Z,17.23
2017-05-05T10:52:17.133Z,19.90
2017-05-05T10:54:44.804Z,18.65
2017-05-05T10:57:13.227Z,17.93
2017-05-05T10:59:41.188Z,19.48
2017-05-05T11:02:08.844Z,17.00
2017-05-05T11:04:37.273Z,16.32
2017-05-05T11:07:04.949Z,18.90
2017-05-05T11:09:32.606Z,19.45
2017-05-05T11:12:00.281Z,18.63
2017-05-05T11:14:28.693Z,17.75
2017-05-05T11:16:56.657Z,19.55
2017-05-05T11:19:25.527Z,19.47
2017-05-05T11:21:53.940Z,20.18
2017-05-05T11:24:22.380Z,18.48
2017-05-05T11:26:50.031Z,18.23
2017-05-05T11:29:18.480Z,21.32
2017-05-05T11:31:46.930Z,18.37
2017-05-05T11:34:14.601Z,21.17
2017-05-05T11:36:42.251Z,21.12
2017-05-05T11:39:10.280Z,19.48
2017-05-05T11:41:37.937Z,18.92
2017-05-05T11:44:05.585Z,19.62
2017-05-05T11:46:33.530Z,17.70
2017-05-05T11:49:01.187Z,22.45
2017-05-05T11:51:29.603Z,21.40
2017-05-05T11:53:57.276Z,21.40
2017-05-05T11:56:24.944Z,21.53
2017-05-05T11:58:53.384Z,20.57
2017-05-05T12:01:21.036Z,22.95
2017-05-05T12:03:48.725Z,21.03
2017-05-05T12:06:16.376Z,18.65
2017-05-05T12:08:44.049Z,16.72
2017-05-05T12:11:12.457Z,17.07
2017-05-05T12:13:40.416Z,20.70
2017-05-05T12:16:08.069Z,20.45
2017-05-05T12:18:35.726Z,21.38
2017-05-05T12:21:03.397Z,18.15
2017-05-05T12:23:31.809Z,19.27
2017-05-05T12:26:00.589Z,21.83
2017-05-05T12:28:28.229Z,20.10
2017-05-05T12:30:55.879Z,18.20
2017-05-05T12:33:23.598Z,18.28
2017-05-05T12:35:51.241Z,18.85
2017-05-05T12:38:19.233Z,21.50
2017-05-05T12:40:46.887Z,20.68
2017-05-05T12:43:15.307Z,20.30
2017-05-05T12:45:43.744Z,18.22
2017-05-05T12:48:12.165Z,21.80
2017-05-05T12:50:39.836Z,19.00
2017-05-05T12:53:07.481Z,21.10
2017-05-05T12:55:36.213Z,25.52
2017-05-05T12:58:03.876Z,16.52
2017-05-05T13:00:31.536Z,20.13
2017-05-05T13:02:59.232Z,18.00
2017-05-05T13:05:27.652Z,16.00
2017-05-05T13:07:55.320Z,21.65
2017-05-05T13:10:22.972Z,20.98
2017-05-05T13:12:50.931Z,19.13
2017-05-05T13:15:19.367Z,18.92
2017-05-05T13:17:47.101Z,18.20
2017-05-05T13:20:14.776Z,21.73
2017-05-05T13:22:42.457Z,19.12
2017-05-05T13:25:10.894Z,21.40
2017-05-05T13:27:38.555Z,18.98
2017-05-05T13:30:07.005Z,19.55
2017-05-05T13:32:35.489Z,22.58
2017-05-05T13:35:03.932Z,22.37
2017-05-05T13:37:31.593Z,24.33
2017-05-05T13:39:59.294Z,23.45
2017-05-05T13:42:26.969Z,25.05
2017-05-05T13:44:54.652Z,22.92
2017-05-05T13:47:23.081Z,24.15
2017-05-05T13:49:51.125Z,23.58
2017-05-05T13:52:18.781Z,23.45
2017-05-05T13:54:46.428Z,26.65
2017-05-05T13:57:14.104Z,22.58
2017-05-05T13:59:42.521Z,22.00
2017-05-05T14:02:10.955Z,24.18
2017-05-05T14:04:39.367Z,18.83
2017-05-05T14:07:07.041Z,22.48
2017-05-05T14:09:35.453Z,21.98
2017-05-05T14:12:03.155Z,21.45
2017-05-05T14:14:30.812Z,28.28
2017-05-05T14:16:59.538Z,24.02
2017-05-05T14:19:27.189Z,22.65
2017-05-05T14:21:54.836Z,25.48
2017-05-05T14:24:22.508Z,20.22
2017-05-05T14:26:50.918Z,20.57
2017-05-05T14:29:18.605Z,22.20
2017-05-05T14:31:46.256Z,21.60
2017-05-05T14:34:13.921Z,23.23
2017-05-05T14:36:42.383Z,17.47
2017-05-05T14:39:10.828Z,21.57
2017-05-05T14:41:38.480Z,21.55
2017-05-05T14:44:07.664Z,19.38
2017-05-05T14:46:35.353Z,18.90
2017-05-05T14:49:03.462Z,22.25
2017-05-05T14:51:32.620Z,20.18
2017-05-05T14:54:00.268Z,22.17
2017-05-05T14:56:28.316Z,18.10
2017-05-05T14:58:55.959Z,20.80
2017-05-05T15:01:23.600Z,16.17
2017-05-05T15:03:51.272Z,20.02
2017-05-05T15:06:19.025Z,18.82
2017-05-05T15:08:47.019Z,18.28
2017-05-05T15:11:15.437Z,19.23
2017-05-05T15:13:44.550Z,16.95
2017-05-05T15:16:14.140Z,22.37
2017-05-05T15:18:41.872Z,20.50
2017-05-05T15:21:09.544Z,17.45
2017-05-05T15:23:37.961Z,17.57
2017-05-05T15:26:06.404Z,17.43
2017-05-05T15:28:34.057Z,16.93
2017-05-05T15:31:01.762Z,17.37
2017-05-05T15:33:29.407Z,18.13
2017-05-05T15:35:58.413Z,21.67
2017-05-05T15:38:26.823Z,18.20
2017-05-05T15:40:54.493Z,20.93
2017-05-05T15:43:22.145Z,22.45
2017-05-05T15:45:49.823Z,25.70
2017-05-05T15:48:17.472Z,24.83
2017-05-05T15:50:45.150Z,24.35
2017-05-05T15:53:12.791Z,27.93
2017-05-05T15:55:40.483Z,23.92
2017-05-05T15:58:08.917Z,27.28
2017-05-05T16:00:36.614Z,22.42
2017-05-05T16:03:05.024Z,22.00
2017-05-05T16:05:33.736Z,24.08
2017-05-05T16:08:01.405Z,23.85
2017-05-05T16:10:29.088Z,29.70
2017-05-05T16:12:56.767Z,23.28
2017-05-05T16:15:24.404Z,24.97
2017-05-05T16:17:52.104Z,24.07
2017-05-05T16:20:19.763Z,27.08
2017-05-05T16:22:47.440Z,22.47
2017-05-05T16:25:16.604Z,25.82
2017-05-05T16:27:45.052Z,23.60
2017-05-05T16:30:12.725Z,23.57
2017-05-05T16:32:40.499Z,21.98
2017-05-05T16:35:08.170Z,21.78
2017-05-05T16:37:36.137Z,24.53
2017-05-05T16:40:03.783Z,24.93
2017-05-05T16:42:31.436Z,22.60
2017-05-05T16:44:59.124Z,25.27
2017-05-05T16:47:26.768Z,22.05
2017-05-05T16:49:54.442Z,23.90
2017-05-05T16:52:22.894Z,19.82
2017-05-05T16:54:51.664Z,25.38
2017-05-05T16:57:20.809Z,29.45
2017-05-05T16:59:49.220Z,21.82
2017-05-05T17:02:16.971Z,22.47
2017-05-05T17:04:45.386Z,19.13
2017-05-05T17:07:13.142Z,25.83
2017-05-05T17:09:40.840Z,26.53
2017-05-05T17:12:09.282Z,24.62
2017-05-05T17:14:36.945Z,26.17
2017-05-05T17:17:05.382Z,30.30
2017-05-05T17:19:33.847Z,25.38
2017-05-05T17:22:01.601Z,24.10
2017-05-05T17:24:29.419Z,25.37
2017-05-05T17:26:57.143Z,18.87
2017-05-05T17:29:25.746Z,23.58
2017-05-05T17:31:53.508Z,26.15
2017-05-05T17:34:22.008Z,19.72
2017-05-05T17:36:50.475Z,23.93
2017-05-05T17:39:18.893Z,24.40
2017-05-05T17:41:47.347Z,22.15
2017-05-05T17:44:16.418Z,30.30
2017-05-05T17:46:44.088Z,23.93
2017-05-05T17:49:11.784Z,22.12
2017-05-05T17:51:40.022Z,23.10
2017-05-05T17:54:08.580Z,25.70
2017-05-05T17:56:36.620Z,20.78
2017-05-05T17:59:04.320Z,22.02
2017-05-05T18:01:31.976Z,21.48
2017-05-05T18:03:59.660Z,27.98
2017-05-05T18:06:27.312Z,25.05
2017-05-05T18:08:55.728Z,23.22
2017-05-05T18:11:23.730Z,22.63
2017-05-05T18:13:52.912Z,20.60
2017-05-05T18:16:20.626Z,27.17
2017-05-05T18:18:49.080Z,20.67
2017-05-05T18:21:16.735Z,24.57
2017-05-05T18:23:45.181Z,27.97
2017-05-05T18:26:13.598Z,27.03
2017-05-05T18:28:42.037Z,25.80
2017-05-05T18:31:09.681Z,29.33
2017-05-05T18:33:37.576Z,27.72
2017-05-05T18:36:08.419Z,21.60
2017-05-05T18:38:36.589Z,26.15
2017-05-05T18:41:05.009Z,25.60
2017-05-05T18:43:34.164Z,29.83
2017-05-05T18:46:01.857Z,27.47
2017-05-05T18:48:29.497Z,30.20
2017-05-05T18:50:58.725Z,29.55
2017-05-05T18:53:26.449Z,29.35
2017-05-05T18:55:54.891Z,26.12
2017-05-05T18:58:24.087Z,29.23
2017-05-05T19:00:51.769Z,28.08
2017-05-05T19:03:20.185Z,25.95
2017-05-05T19:05:48.664Z,25.68
2017-05-05T19:08:17.268Z,29.77
2017-05-05T19:10:44.995Z,25.40
2017-05-05T19:15:39.221Z,27.45
2017-05-05T19:18:06.874Z,27.60
2017-05-05T19:20:34.580Z,29.38
2017-05-05T19:23:02.239Z,30.02
2017-05-05T19:25:29.921Z,28.60
2017-05-05T19:27:57.573Z,24.85
2017-05-05T19:30:26.756Z,32.20
2017-05-05T19:32:54.407Z,28.58
2017-05-05T19:35:22.435Z,33.42
2017-05-05T19:37:50.096Z,26.28
2017-05-05T19:40:17.758Z,28.33
2017-05-05T19:42:45.442Z,32.88
2017-05-05T19:45:13.102Z,36.95
2017-05-05T19:47:40.793Z,33.05
2017-05-05T19:50:08.445Z,31.72
2017-05-05T19:52:37.636Z,34.28
2017-05-05T19:55:06.061Z,31.08
2017-05-05T19:57:33.745Z,34.62
2017-05-05T20:00:01.393Z,36.43
2017-05-05T20:02:29.066Z,29.68
2017-05-05T20:04:56.787Z,32.07
2017-05-05T20:07:25.241Z,31.20
2017-05-05T20:09:52.884Z,31.87
2017-05-05T20:12:20.565Z,31.18
2017-05-05T20:14:48.997Z,36.33
2017-05-05T20:17:18.194Z,38.57
2017-05-05T20:19:45.861Z,37.55
2017-05-05T20:22:14.296Z,35.62
2017-05-05T20:24:42.763Z,35.50
2017-05-05T20:27:10.433Z,31.13
2017-05-05T20:29:38.853Z,35.90
2017-05-05T20:32:07.640Z,34.15
2017-05-05T20:34:36.788Z,31.78
2017-05-05T20:37:04.431Z,31.68
2017-05-05T20:39:32.126Z,29.68
2017-05-05T20:42:01.283Z,33.60
2017-05-05T20:44:29.740Z,30.87
2017-05-05T20:46:58.163Z,28.50
2017-05-05T20:49:26.602Z,38.32
2017-05-05T20:51:54.255Z,38.50
2017-05-05T20:54:21.935Z,31.52
2017-05-05T20:56:49.588Z,37.65
2017-05-05T20:59:21.954Z,40.48
2017-05-05T21:01:49.643Z,38.30
2017-05-05T21:04:17.329Z,45.00
2017-05-05T21:06:44.984Z,31.87
2017-05-05T21:09:12.652Z,35.55
2017-05-05T21:11:40.311Z,37.10
2017-05-05T21:14:08.709Z,33.18
2017-05-05T21:16:40.292Z,38.25
2017-05-05T21:19:08.274Z,35.10
2017-05-05T21:21:35.932Z,42.87
2017-05-05T21:24:03.597Z,42.82
2017-05-05T21:26:32.037Z,41.72
2017-05-05T21:28:59.684Z,54.75
2017-05-05T21:31:27.377Z,47.78
2017-05-05T21:33:56.839Z,48.45
2017-05-05T21:36:27.230Z,56.47
2017-05-05T21:38:54.903Z,41.38
2017-05-05T21:41:23.413Z,42.83
2017-05-05T21:43:51.064Z,40.25
2017-05-05T21:46:18.724Z,57.23
2017-05-05T21:48:46.402Z,58.30
2017-05-05T21:51:14.054Z,41.58
2017-05-05T21:53:43.900Z,35.12
2017-05-05T21:56:12.616Z,46.28
2017-05-05T21:58:40.256Z,39.32
2017-05-05T22:01:07.928Z,39.87
2017-05-05T22:03:36.349Z,44.28
2017-05-05T22:06:04.156Z,50.60
2017-05-05T22:08:32.032Z,47.38
2017-05-05T22:11:01.303Z,49.15
2017-05-05T22:13:29.713Z,57.52
2017-05-05T22:15:57.389Z,42.17
2017-05-05T22:18:25.894Z,49.53
2017-05-05T22:20:54.364Z,37.83
2017-05-05T22:23:22.082Z,42.23
2017-05-05T22:25:49.776Z,44.25
2017-05-05T22:28:17.461Z,41.80
2017-05-05T22:30:45.152Z,44.60
2017-05-05T22:33:13.577Z,38.13
2017-05-05T22:35:42.013Z,29.52
2017-05-05T22:38:09.662Z,42.62
2017-05-05T22:40:37.334Z,46.93
2017-05-05T22:43:04.997Z,32.23
2017-05-05T22:45:32.990Z,52.22
2017-05-05T22:48:00.650Z,50.90
2017-05-05T22:50:28.548Z,54.18
2017-05-05T22:52:56.242Z,42.53
2017-05-05T22:55:23.896Z,36.53
2017-05-05T22:57:51.570Z,39.08
2017-05-05T23:00:20.021Z,37.38
2017-05-05T23:02:47.697Z,47.12
2017-05-05T23:05:16.126Z,60.38
2017-05-05T23:07:43.810Z,42.67
2017-05-05T23:10:12.240Z,35.10
2017-05-05T23:12:39.930Z,40.73
2017-05-05T23:15:08.361Z,39.47
2017-05-05T23:17:36.025Z,40.32
2017-05-05T23:20:04.451Z,48.98
2017-05-05T23:25:04.977Z,39.07
2017-05-05T23:27:32.680Z,44.28
2017-05-05T23:30:00.348Z,33.97
2017-05-05T23:32:28.289Z,35.60
2017-05-05T23:34:55.923Z,43.80
2017-05-05T23:37:24.353Z,42.77
2017-05-05T23:39:52.020Z,37.12
2017-05-05T23:42:20.431Z,36.35
2017-05-05T23:44:48.127Z,31.62
2017-05-05T23:47:16.525Z,43.50
2017-05-05T23:49:44.170Z,40.28
2017-05-05T23:52:14.530Z,42.30
2017-05-05T23:54:42.572Z,36.25
2017-05-05T23:57:10.247Z,36.27
2017-05-05T23:59:38.683Z,37.43
